createdAt,value
2018-02-21T00:01:07.969Z,47.92
2018-02-21T00:03:35.928Z,46.95
2018-02-21T00:06:02.905Z,39.30
2018-02-21T00:08:29.884Z,41.22
2018-02-21T00:10:56.828Z,38.65
2018-02-21T00:13:23.773Z,49.50
2018-02-21T00:15:51.491Z,42.05
2018-02-21T00:18:18.432Z,51.75
2018-02-21T00:20:45.380Z,47.62
2018-02-21T00:23:12.321Z,40.08
2018-02-21T00:25:40.288Z,46.15
2018-02-21T00:28:07.237Z,45.00
2018-02-21T00:30:34.201Z,43.25
2018-02-21T00:33:01.141Z,48.25
2018-02-21T00:35:28.087Z,54.10
2018-02-21T00:37:55.020Z,46.17
2018-02-21T00:40:21.980Z,39.63
2018-02-21T00:42:49.913Z,46.53
2018-02-21T00:45:16.873Z,38.05
2018-02-21T00:47:43.819Z,35.15
2018-02-21T00:50:10.777Z,38.10
2018-02-21T00:52:37.720Z,45.33
2018-02-21T00:55:04.668Z,40.10
2018-02-21T00:57:31.608Z,41.85
2018-02-21T00:59:59.153Z,46.37
2018-02-21T01:02:26.102Z,42.72
2018-02-21T01:04:53.963Z,42.05
2018-02-21T01:07:20.899Z,39.50
2018-02-21T01:09:47.864Z,37.75
2018-02-21T01:12:14.808Z,38.78
2018-02-21T01:14:41.755Z,39.63
2018-02-21T01:17:08.691Z,50.90
2018-02-21T01:19:35.644Z,40.20
2018-02-21T01:22:02.582Z,49.45
2018-02-21T01:24:29.532Z,40.90
2018-02-21T01:26:56.616Z,40.40
2018-02-21T01:29:23.578Z,41.05
2018-02-21T01:31:51.285Z,41.58
2018-02-21T01:34:18.235Z,37.17
2018-02-21T01:36:45.178Z,39.10
2018-02-21T01:39:13.141Z,43.95
2018-02-21T01:41:42.016Z,45.08
2018-02-21T01:44:08.972Z,42.20
2018-02-21T01:46:35.912Z,37.55
2018-02-21T01:49:02.874Z,35.65
2018-02-21T01:51:29.817Z,42.58
2018-02-21T01:53:56.764Z,37.08
2018-02-21T01:56:23.705Z,39.53
2018-02-21T01:58:50.660Z,39.80
2018-02-21T02:01:17.605Z,37.95
2018-02-21T02:03:44.560Z,36.20
2018-02-21T02:06:11.504Z,37.70
2018-02-21T02:08:38.459Z,33.67
2018-02-21T02:11:05.403Z,39.30
2018-02-21T02:13:32.358Z,36.83
2018-02-21T02:15:59.295Z,37.35
2018-02-21T02:18:26.266Z,34.67
2018-02-21T02:20:53.964Z,35.28
2018-02-21T02:23:20.925Z,34.95
2018-02-21T02:25:47.860Z,37.28
2018-02-21T02:28:14.813Z,30.92
2018-02-21T02:30:41.757Z,36.03
2018-02-21T02:33:08.714Z,30.33
2018-02-21T02:35:35.652Z,38.20
2018-02-21T02:38:02.657Z,35.85
2018-02-21T02:40:30.340Z,33.08
2018-02-21T02:42:57.288Z,38.60
2018-02-21T02:45:24.224Z,27.73
2018-02-21T02:47:51.184Z,38.08
2018-02-21T02:50:18.130Z,35.03
2018-02-21T02:52:45.060Z,33.95
2018-02-21T02:55:12.021Z,34.53
2018-02-21T02:57:39.039Z,39.10
2018-02-21T03:00:06.063Z,28.67
2018-02-21T03:02:33.024Z,35.47
2018-02-21T03:05:00.045Z,32.53
2018-02-21T03:07:27.790Z,34.60
2018-02-21T03:09:56.151Z,37.15
2018-02-21T03:12:23.175Z,30.95
2018-02-21T03:14:50.164Z,31.00
2018-02-21T03:17:17.128Z,34.65
2018-02-21T03:19:44.835Z,33.95
2018-02-21T03:22:11.788Z,33.03
2018-02-21T03:24:38.724Z,34.33
2018-02-21T03:27:05.680Z,30.65
2018-02-21T03:29:32.620Z,31.95
2018-02-21T03:31:59.580Z,37.28
2018-02-21T03:34:26.520Z,29.42
2018-02-21T03:36:53.479Z,34.15
2018-02-21T03:39:20.412Z,28.83
2018-02-21T03:41:47.366Z,32.38
2018-02-21T03:44:14.304Z,32.20
2018-02-21T03:46:42.235Z,31.20
2018-02-21T03:49:09.179Z,32.20
2018-02-21T03:51:36.126Z,28.73
2018-02-21T03:54:05.017Z,34.15
2018-02-21T03:56:31.980Z,32.42
2018-02-21T03:58:58.929Z,32.78
2018-02-21T04:01:25.881Z,33.42
2018-02-21T04:03:52.843Z,30.50
2018-02-21T04:06:19.792Z,35.08
2018-02-21T04:08:46.744Z,35.33
2018-02-21T04:11:13.684Z,31.50
2018-02-21T04:13:41.602Z,35.70
2018-02-21T04:16:08.550Z,39.47
2018-02-21T04:18:35.597Z,39.92
2018-02-21T04:21:02.531Z,31.10
2018-02-21T04:23:29.485Z,37.72
2018-02-21T04:25:56.422Z,36.35
2018-02-21T04:28:23.380Z,37.35
2018-02-21T04:30:50.320Z,35.15
2018-02-21T04:33:18.193Z,33.80
2018-02-21T04:35:45.137Z,37.35
2018-02-21T04:38:12.101Z,44.75
2018-02-21T04:40:39.044Z,35.65
2018-02-21T04:43:06.000Z,32.92
2018-02-21T04:45:32.941Z,42.70
2018-02-21T04:47:59.892Z,39.00
2018-02-21T04:50:26.829Z,47.65
2018-02-21T04:52:53.785Z,37.05
2018-02-21T04:55:20.716Z,40.15
2018-02-21T04:57:47.664Z,35.95
2018-02-21T05:00:14.609Z,34.03
2018-02-21T05:02:41.569Z,34.78
2018-02-21T05:05:08.504Z,34.42
2018-02-21T05:07:35.463Z,34.15
2018-02-21T05:10:02.409Z,41.95
2018-02-21T05:12:29.364Z,35.25
2018-02-21T05:14:58.078Z,35.00
2018-02-21T05:17:25.037Z,48.25
2018-02-21T05:19:51.971Z,39.40
2018-02-21T05:22:18.929Z,37.90
2018-02-21T05:24:45.874Z,38.08
2018-02-21T05:27:12.829Z,41.58
2018-02-21T05:29:39.767Z,39.85
2018-02-21T05:32:06.725Z,38.22
2018-02-21T05:34:33.651Z,38.25
2018-02-21T05:37:00.599Z,44.35
2018-02-21T05:39:28.413Z,47.88
2018-02-21T05:41:55.538Z,43.78
2018-02-21T05:44:22.472Z,48.70
2018-02-21T05:46:49.420Z,47.85
2018-02-21T05:49:16.351Z,40.20
2018-02-21T05:51:43.300Z,41.42
2018-02-21T05:54:10.232Z,46.50
2018-02-21T05:56:37.189Z,44.03
2018-02-21T05:59:04.129Z,42.92
2018-02-21T06:01:31.079Z,44.90
2018-02-21T06:03:58.022Z,50.72
2018-02-21T06:06:24.987Z,36.72
2018-02-21T06:08:51.928Z,46.08
2018-02-21T06:11:18.895Z,40.65
2018-02-21T06:13:46.608Z,42.80
2018-02-21T06:16:13.555Z,43.38
2018-02-21T06:18:40.493Z,43.25
2018-02-21T06:21:07.464Z,45.05
2018-02-21T06:23:34.405Z,39.72
2018-02-21T06:26:01.360Z,55.92
2018-02-21T06:28:28.310Z,47.58
2018-02-21T06:30:56.254Z,40.67
2018-02-21T06:33:23.192Z,44.75
2018-02-21T06:35:50.147Z,47.45
2018-02-21T06:38:17.080Z,43.90
2018-02-21T06:40:44.029Z,37.58
2018-02-21T06:43:10.965Z,42.38
2018-02-21T06:45:37.920Z,45.60
2018-02-21T06:48:04.921Z,48.17
2018-02-21T06:50:32.656Z,51.78
2018-02-21T06:52:59.600Z,44.28
2018-02-21T06:55:26.556Z,47.10
2018-02-21T06:57:53.510Z,46.60
2018-02-21T07:00:21.252Z,47.88
2018-02-21T07:02:48.189Z,47.92
2018-02-21T07:05:15.140Z,42.88
2018-02-21T07:07:42.093Z,43.20
2018-02-21T07:10:09.093Z,52.08
2018-02-21T07:12:36.761Z,49.67
2018-02-21T07:15:03.910Z,55.28
2018-02-21T07:17:30.858Z,47.85
2018-02-21T07:19:57.808Z,45.12
2018-02-21T07:22:24.777Z,48.95
2018-02-21T07:24:52.713Z,41.85
2018-02-21T07:27:19.654Z,51.47
2018-02-21T07:29:46.605Z,47.58
2018-02-21T07:32:13.542Z,55.12
2018-02-21T07:34:40.497Z,53.83
2018-02-21T07:37:07.428Z,52.95
2018-02-21T07:39:34.385Z,49.13
2018-02-21T07:42:01.345Z,50.80
2018-02-21T07:44:28.301Z,54.35
2018-02-21T07:46:55.239Z,49.08
2018-02-21T07:49:22.188Z,52.30
2018-02-21T07:51:49.121Z,52.17
2018-02-21T07:54:16.118Z,51.67
2018-02-21T07:56:43.028Z,51.13
2018-02-21T07:59:10.000Z,51.10
2018-02-21T08:01:36.936Z,49.55
2018-02-21T08:04:03.888Z,56.92
2018-02-21T08:06:31.640Z,50.38
2018-02-21T08:08:58.568Z,46.37
2018-02-21T08:11:25.499Z,44.95
2018-02-21T08:13:52.457Z,45.10
2018-02-21T08:16:20.380Z,47.47
2018-02-21T08:18:47.342Z,53.72
2018-02-21T08:21:14.288Z,51.00
2018-02-21T08:23:47.657Z,40.85
2018-02-21T08:26:15.352Z,43.38
2018-02-21T08:28:42.281Z,39.80
2018-02-21T08:31:11.182Z,37.35
2018-02-21T08:33:38.150Z,43.85
2018-02-21T08:36:06.081Z,41.13
2018-02-21T08:38:33.045Z,42.80
2018-02-21T08:40:59.989Z,35.45
2018-02-21T08:43:26.921Z,33.25
2018-02-21T08:45:53.892Z,30.08
2018-02-21T08:48:20.872Z,34.40
2018-02-21T08:50:47.816Z,31.10
2018-02-21T08:53:14.752Z,30.67
2018-02-21T08:55:41.702Z,32.88
2018-02-21T08:58:08.661Z,29.83
2018-02-21T09:00:36.390Z,30.30
2018-02-21T09:03:03.323Z,35.33
2018-02-21T09:05:30.259Z,28.27
2018-02-21T09:07:58.182Z,31.23
2018-02-21T09:10:26.796Z,26.33
2018-02-21T09:12:53.715Z,34.78
2018-02-21T09:15:20.664Z,28.77
2018-02-21T09:17:48.365Z,32.60
2018-02-21T09:20:15.313Z,34.97
2018-02-21T09:22:42.256Z,40.67
2018-02-21T09:25:09.208Z,34.03
2018-02-21T09:27:36.156Z,35.65
2018-02-21T09:30:03.105Z,31.60
2018-02-21T09:32:30.051Z,36.17
2018-02-21T09:34:57.007Z,32.72
2018-02-21T09:37:23.938Z,38.88
2018-02-21T09:39:50.901Z,29.98
2018-02-21T09:42:18.816Z,34.95
2018-02-21T09:44:45.768Z,30.40
2018-02-21T09:47:12.713Z,35.67
2018-02-21T09:49:39.676Z,30.17
2018-02-21T09:52:06.617Z,30.77
2018-02-21T09:54:33.800Z,29.73
2018-02-21T09:57:00.713Z,28.27
2018-02-21T09:59:27.672Z,24.27
2018-02-21T10:01:54.609Z,26.73
2018-02-21T10:04:21.551Z,24.08
2018-02-21T10:06:48.484Z,25.40
2018-02-21T10:09:15.437Z,28.45
2018-02-21T10:11:43.377Z,32.00
2018-02-21T10:14:10.328Z,31.37
2018-02-21T10:16:37.269Z,21.35
2018-02-21T10:19:04.226Z,17.83
2018-02-21T10:21:33.132Z,18.75
2018-02-21T10:24:01.098Z,21.80
2018-02-21T10:26:29.027Z,22.35
2018-02-21T10:28:55.968Z,34.33
2018-02-21T10:31:23.686Z,39.50
2018-02-21T10:33:50.631Z,23.60
2018-02-21T10:36:18.551Z,28.90
2018-02-21T10:38:45.495Z,29.08
2018-02-21T10:41:12.429Z,33.10
2018-02-21T10:43:40.155Z,26.55
2018-02-21T10:46:07.104Z,26.73
2018-02-21T10:48:34.055Z,29.87
2018-02-21T10:51:01.000Z,25.52
2018-02-21T10:53:27.958Z,29.37
2018-02-21T10:55:54.895Z,27.15
2018-02-21T10:58:21.850Z,30.17
2018-02-21T11:00:49.556Z,23.62
2018-02-21T11:03:16.508Z,23.83
2018-02-21T11:05:43.449Z,21.83
2018-02-21T11:08:10.400Z,30.62
2018-02-21T11:10:37.336Z,27.23
2018-02-21T11:13:04.289Z,27.45
2018-02-21T11:15:31.235Z,28.85
2018-02-21T11:17:58.197Z,26.92
2018-02-21T11:20:25.897Z,21.30
2018-02-21T11:22:53.809Z,21.85
2018-02-21T11:25:20.740Z,26.25
2018-02-21T11:27:47.693Z,23.42
2018-02-21T11:30:14.625Z,23.17
2018-02-21T11:32:41.588Z,19.33
2018-02-21T11:35:08.531Z,20.02
2018-02-21T11:37:35.481Z,21.23
2018-02-21T11:40:03.416Z,19.33
2018-02-21T11:42:30.367Z,15.60
2018-02-21T11:44:57.299Z,22.20
2018-02-21T11:47:24.248Z,21.83
2018-02-21T11:49:51.208Z,24.90
2018-02-21T11:52:18.164Z,28.62
2018-02-21T11:54:48.280Z,25.85
2018-02-21T11:57:16.153Z,25.55
2018-02-21T11:59:43.109Z,26.70
2018-02-21T12:02:11.045Z,30.65
2018-02-21T12:04:38.001Z,29.15
2018-02-21T12:07:04.940Z,24.37
2018-02-21T12:09:31.888Z,26.52
2018-02-21T12:11:58.824Z,31.58
2018-02-21T12:14:25.787Z,27.25
2018-02-21T12:16:52.740Z,29.17
2018-02-21T12:19:20.682Z,31.85
2018-02-21T12:21:47.607Z,32.55
2018-02-21T12:24:15.367Z,29.60
2018-02-21T12:26:45.015Z,33.13
2018-02-21T12:29:12.899Z,29.42
2018-02-21T12:31:43.090Z,30.75
2018-02-21T12:34:10.044Z,32.75
2018-02-21T12:36:36.996Z,33.28
2018-02-21T12:39:03.971Z,33.60
2018-02-21T12:41:30.907Z,32.13
2018-02-21T12:43:58.848Z,32.08
2018-02-21T12:46:25.777Z,30.42
2018-02-21T12:48:52.723Z,32.40
2018-02-21T12:51:19.652Z,28.75
2018-02-21T12:53:46.600Z,35.58
2018-02-21T12:56:13.524Z,40.08
2018-02-21T12:58:41.238Z,32.00
2018-02-21T13:01:08.185Z,35.97
2018-02-21T13:03:35.127Z,28.38
2018-02-21T13:06:03.055Z,34.60
2018-02-21T13:08:30.767Z,27.67
2018-02-21T13:10:58.470Z,34.25
2018-02-21T13:13:26.195Z,37.75
2018-02-21T13:15:54.143Z,31.30
2018-02-21T13:18:22.033Z,36.25
2018-02-21T13:20:48.963Z,32.20
2018-02-21T13:23:15.922Z,32.38
2018-02-21T13:25:42.855Z,39.45
2018-02-21T13:28:09.820Z,35.65
2018-02-21T13:30:37.527Z,31.20
2018-02-21T13:33:04.483Z,27.83
2018-02-21T13:35:32.357Z,32.35
2018-02-21T13:37:59.312Z,28.25
2018-02-21T13:40:26.235Z,33.25
2018-02-21T13:42:53.184Z,27.70
2018-02-21T13:45:20.114Z,31.58
2018-02-21T13:47:47.838Z,37.65
2018-02-21T13:50:14.783Z,30.88
2018-02-21T13:52:41.724Z,38.08
2018-02-21T13:55:08.686Z,28.20
2018-02-21T13:57:35.628Z,33.60
2018-02-21T14:00:02.584Z,28.58
2018-02-21T14:02:29.530Z,25.40
2018-02-21T14:04:57.247Z,28.25
2018-02-21T14:07:26.113Z,29.35
2018-02-21T14:09:53.062Z,25.92
2018-02-21T14:12:20.007Z,26.02
2018-02-21T14:14:47.728Z,27.62
2018-02-21T14:17:14.689Z,34.38
2018-02-21T14:19:42.593Z,34.47
2018-02-21T14:22:09.540Z,29.10
2018-02-21T14:24:37.524Z,35.45
2018-02-21T14:27:04.477Z,36.33
2018-02-21T14:29:31.443Z,33.47
2018-02-21T14:31:58.387Z,34.85
2018-02-21T14:34:25.896Z,33.92
2018-02-21T14:36:52.844Z,36.45
2018-02-21T14:39:19.811Z,46.42
2018-02-21T14:41:48.712Z,36.65
2018-02-21T14:44:15.748Z,31.17
2018-02-21T14:46:43.454Z,36.42
2018-02-21T14:49:11.172Z,33.63
2018-02-21T14:51:40.805Z,33.53
2018-02-21T14:54:07.755Z,29.83
2018-02-21T14:56:34.691Z,27.48
2018-02-21T14:59:01.675Z,35.38
2018-02-21T15:01:28.642Z,33.10
2018-02-21T15:03:57.377Z,35.35
2018-02-21T15:06:24.314Z,33.92
2018-02-21T15:08:52.249Z,32.08
2018-02-21T15:11:19.966Z,29.17
2018-02-21T15:13:46.945Z,31.87
2018-02-21T15:16:13.894Z,38.42
2018-02-21T15:18:41.598Z,35.03
2018-02-21T15:21:08.560Z,27.80
2018-02-21T15:23:35.501Z,35.65
2018-02-21T15:26:02.458Z,32.63
2018-02-21T15:28:29.406Z,38.45
2018-02-21T15:30:56.360Z,36.63
2018-02-21T15:33:23.306Z,40.30
2018-02-21T15:35:51.061Z,42.83
2018-02-21T15:38:17.997Z,34.40
2018-02-21T15:40:44.976Z,29.65
2018-02-21T15:43:11.928Z,32.78
2018-02-21T15:45:39.657Z,31.73
2018-02-21T15:48:06.590Z,32.30
2018-02-21T15:50:34.592Z,37.30
2018-02-21T15:53:02.293Z,34.50
2018-02-21T15:55:29.257Z,31.90
2018-02-21T15:57:56.190Z,33.22
2018-02-21T16:00:23.154Z,33.05
2018-02-21T16:02:50.104Z,32.42
2018-02-21T16:05:18.060Z,39.08
2018-02-21T16:07:44.992Z,31.42
2018-02-21T16:10:11.940Z,33.53
2018-02-21T16:12:38.872Z,32.03
2018-02-21T16:15:05.817Z,29.95
2018-02-21T16:17:33.655Z,34.15
2018-02-21T16:20:00.616Z,33.78
2018-02-21T16:22:29.331Z,30.90
2018-02-21T16:24:57.193Z,38.60
2018-02-21T16:27:24.135Z,30.10
2018-02-21T16:29:51.094Z,32.25
2018-02-21T16:32:18.035Z,34.70
2018-02-21T16:34:45.000Z,32.90
2018-02-21T16:37:12.840Z,35.47
2018-02-21T16:39:39.797Z,34.75
2018-02-21T16:42:06.742Z,37.47
2018-02-21T16:44:33.698Z,38.25
2018-02-21T16:47:01.417Z,43.40
2018-02-21T16:49:30.143Z,39.60
2018-02-21T16:51:57.084Z,32.70
2018-02-21T16:54:24.036Z,39.40
2018-02-21T16:56:52.503Z,38.72
2018-02-21T16:59:19.624Z,35.28
2018-02-21T17:01:53.590Z,38.05
2018-02-21T17:04:22.448Z,35.58
2018-02-21T17:06:49.384Z,39.10
2018-02-21T17:09:17.268Z,41.88
2018-02-21T17:11:45.108Z,40.83
2018-02-21T17:14:12.054Z,38.38
2018-02-21T17:16:39.019Z,39.90
2018-02-21T17:19:07.031Z,38.78
2018-02-21T17:21:34.958Z,40.45
2018-02-21T17:24:01.887Z,48.80
2018-02-21T17:26:28.857Z,44.95
2018-02-21T17:28:57.746Z,50.50
2018-02-21T17:31:26.605Z,35.90
2018-02-21T17:33:53.541Z,48.03
2018-02-21T17:36:21.436Z,42.20
2018-02-21T17:38:50.277Z,43.28
2018-02-21T17:41:18.012Z,41.35
2018-02-21T17:43:44.965Z,45.20
2018-02-21T17:46:11.909Z,44.38
2018-02-21T17:48:39.857Z,44.45
2018-02-21T17:51:10.530Z,45.38
2018-02-21T17:53:37.474Z,39.53
2018-02-21T17:56:04.428Z,45.08
2018-02-21T17:58:31.363Z,39.20
2018-02-21T18:00:58.413Z,42.20
2018-02-21T18:03:25.360Z,44.42
2018-02-21T18:05:56.636Z,47.53
2018-02-21T18:08:25.541Z,43.40
2018-02-21T18:10:52.504Z,44.75
2018-02-21T18:13:19.454Z,48.22
2018-02-21T18:15:46.417Z,42.80
2018-02-21T18:18:18.016Z,46.17
2018-02-21T18:20:48.672Z,45.88
2018-02-21T18:23:15.640Z,42.65
2018-02-21T18:25:43.384Z,49.25
2018-02-21T18:28:10.471Z,53.90
2018-02-21T18:30:37.423Z,46.90
2018-02-21T18:33:12.260Z,49.47
2018-02-21T18:35:40.115Z,46.45
2018-02-21T18:38:10.848Z,50.45
2018-02-21T18:40:38.741Z,52.92
2018-02-21T18:43:07.610Z,54.40
2018-02-21T18:45:34.596Z,61.95
2018-02-21T18:48:03.473Z,54.97
2018-02-21T18:50:30.448Z,52.28
2018-02-21T18:52:57.392Z,53.05
2018-02-21T18:55:27.040Z,56.47
2018-02-21T18:57:55.942Z,53.15
2018-02-21T19:00:23.793Z,48.55
2018-02-21T19:02:51.742Z,50.28
2018-02-21T19:05:18.716Z,54.55
2018-02-21T19:07:45.663Z,51.33
2018-02-21T19:10:13.625Z,56.13
2018-02-21T19:12:40.560Z,55.53
2018-02-21T19:15:07.555Z,54.53
2018-02-21T19:17:34.518Z,53.70
2018-02-21T19:20:02.418Z,61.37
2018-02-21T19:22:29.364Z,57.33
2018-02-21T19:24:57.311Z,57.75
2018-02-21T19:27:25.183Z,57.70
2018-02-21T19:29:52.156Z,61.45
2018-02-21T19:32:20.080Z,52.88
2018-02-21T19:34:47.071Z,57.10
2018-02-21T19:37:14.036Z,58.85
2018-02-21T19:39:42.663Z,54.33
2018-02-21T19:42:10.521Z,58.33
2018-02-21T19:44:37.484Z,66.55
2018-02-21T19:47:04.433Z,54.45
2018-02-21T19:49:31.424Z,56.50
2018-02-21T19:51:58.377Z,56.97
2018-02-21T19:54:26.288Z,66.65
2018-02-21T19:56:54.148Z,66.03
2018-02-21T19:59:21.121Z,68.65
2018-02-21T20:01:48.096Z,57.72
2018-02-21T20:04:15.829Z,66.95
2018-02-21T20:06:43.768Z,72.18
2018-02-21T20:09:11.663Z,63.92
2018-02-21T20:11:38.607Z,59.58
2018-02-21T20:14:06.564Z,69.50
2018-02-21T20:16:33.519Z,73.45
2018-02-21T20:19:03.628Z,76.60
2018-02-21T20:21:31.568Z,77.37
2018-02-21T20:23:58.523Z,76.80
2018-02-21T20:26:25.493Z,80.47
2018-02-21T20:28:53.384Z,76.85
2018-02-21T20:31:21.316Z,79.82
2018-02-21T20:33:48.285Z,87.78
2018-02-21T20:36:15.228Z,74.43
2018-02-21T20:38:42.196Z,72.95
2018-02-21T20:41:09.197Z,66.97
2018-02-21T20:43:37.104Z,69.28
2018-02-21T20:46:04.090Z,74.50
2018-02-21T20:48:31.071Z,71.05
2018-02-21T20:50:58.012Z,69.30
2018-02-21T20:53:24.981Z,66.60
2018-02-21T20:55:54.584Z,68.07
2018-02-21T20:58:23.423Z,64.32
2018-02-21T21:00:51.441Z,75.85
2018-02-21T21:03:19.162Z,74.70
2018-02-21T21:05:46.170Z,73.82
2018-02-21T21:08:14.931Z,72.18
2018-02-21T21:10:41.933Z,82.25
2018-02-21T21:13:08.994Z,74.55
2018-02-21T21:15:35.972Z,76.82
2018-02-21T21:18:04.238Z,89.03
2018-02-21T21:20:35.982Z,81.90
2018-02-21T21:23:03.958Z,72.20
2018-02-21T21:25:31.696Z,75.85
2018-02-21T21:27:58.640Z,70.10
2018-02-21T21:30:25.597Z,68.80
2018-02-21T21:32:52.586Z,74.37
2018-02-21T21:35:20.314Z,80.80
2018-02-21T21:37:48.255Z,73.90
2018-02-21T21:40:16.105Z,69.20
2018-02-21T21:42:43.097Z,69.57
2018-02-21T21:45:10.037Z,74.40
2018-02-21T21:47:36.993Z,71.82
2018-02-21T21:50:03.946Z,72.18
2018-02-21T21:52:31.696Z,67.70
2018-02-21T21:54:59.616Z,77.22
2018-02-21T21:57:26.580Z,78.15
2018-02-21T21:59:53.520Z,76.30
2018-02-21T22:02:21.485Z,86.68
2018-02-21T22:04:48.412Z,75.80
2018-02-21T22:07:15.357Z,83.35
2018-02-21T22:09:42.314Z,75.85
2018-02-21T22:12:09.265Z,71.00
2018-02-21T22:14:36.237Z,80.90
2018-02-21T22:17:03.184Z,85.45
2018-02-21T22:19:31.045Z,77.18
2018-02-21T22:21:57.986Z,81.18
2018-02-21T22:24:26.862Z,81.18
2018-02-21T22:26:53.791Z,80.25
2018-02-21T22:29:21.664Z,95.15
2018-02-21T22:31:48.601Z,77.82
2018-02-21T22:34:15.565Z,84.62
2018-02-21T22:36:42.508Z,76.25
2018-02-21T22:39:10.476Z,69.43
2018-02-21T22:41:38.398Z,88.65
2018-02-21T22:44:06.112Z,72.78
2018-02-21T22:46:33.056Z,79.07
2018-02-21T22:49:00.022Z,69.60
2018-02-21T22:51:27.012Z,80.57
2018-02-21T22:53:54.733Z,87.55
2018-02-21T22:56:21.672Z,84.47
2018-02-21T22:58:48.642Z,100.97
2018-02-21T23:01:15.617Z,91.50
2018-02-21T23:03:42.585Z,100.28
2018-02-21T23:06:09.529Z,91.85
2018-02-21T23:08:36.495Z,86.87
2018-02-21T23:11:03.466Z,91.43
2018-02-21T23:13:30.440Z,74.15
2018-02-21T23:15:57.380Z,78.60
2018-02-21T23:18:25.098Z,86.05
2018-02-21T23:20:52.036Z,72.45
2018-02-21T23:23:19.002Z,84.65
2018-02-21T23:25:45.951Z,86.07
2018-02-21T23:28:12.908Z,78.45
2018-02-21T23:30:40.603Z,84.25
2018-02-21T23:33:07.549Z,75.80
2018-02-21T23:35:34.484Z,83.28
2018-02-21T23:38:01.450Z,74.90
2018-02-21T23:40:28.392Z,75.68
2018-02-21T23:42:55.336Z,70.95
2018-02-21T23:45:22.270Z,72.10
2018-02-21T23:47:49.223Z,80.97
2018-02-21T23:50:16.162Z,78.80
2018-02-21T23:52:43.113Z,81.65
2018-02-21T23:55:10.969Z,72.20
2018-02-21T23:57:37.925Z,71.25
